Atlanta, MI

3:02 PM EST on January 28, 2015 (GMT -0500)
Otsego County | Change Station
CLOSE
Current Station
Airport
Location: Gaylord,
Elevation: 1325 ft
Nearby Weather Stations

Elev 1325 ft 45.01 °N, 84.70 °W | Updated 1 hour ago

Clear
Clear
25 °F
Feels Like 16 °F
N
9
Wind Variable Wind from South

Today
High -- | Low -- °F
--% Chance of Precip.
Yesterday
High -- | Low -- °F
Precip. -- in
8:00 AM 5:38 PM
Waxing Gibbous, 67% visible
Pressure 30.24 in
Visibility 10.0 miles
Clouds Clear
Windchill 16 °F
Dew Point 3 °F
Humidity 39%
Rainfall 0.00 in
Snow Depth Not available.
UV 2 out of 12
Pollen .10 out of 12
Air Quality Not available.
Flu Activity Not available.
METAR KGLR 281853Z AUTO 17008KT 10SM CLR M04/M16 A3015 RMK AO2 SLP239 T10391161

More Conditions Fewer Conditions

Pressure 30.24 in
Visibility 10.0 miles
Clouds Clear
Windchill 16 °F
Dew Point 3 °F
Humidity 39%
Rainfall 0.00 in
Snow Depth Not available.
UV 2 out of 12
Pollen .10 out of 12
Air Quality Not available.
Flu Activity Not available.
METAR KGLR 281853Z AUTO 17008KT 10SM CLR M04/M16 A3015 RMK AO2 SLP239 T10391161

More Conditions Fewer Conditions

Nowcast | as of 3:00 PM EST on January 28, 2015

At 4 PM...partly cloudy. Temperature 28. Light winds. At 6 PM...mostly cloudy. Temperature 25. Light winds. At 8 PM...mostly cloudy. Temperature 23. Light winds. At 10 PM...mostly cloudy. Temperature 22. South winds 5 mph.

×

10-Day Weather Forecast

Almanac

Astronomy

Jan. 28, 2015 Rise Set
Actual Time
Civil Twilight
Nautical Twilight
Astronomical Twilight
Moon
Length of Visible Light
Length of Day
Tomorrow will be .
, % of the Moon is Illuminated

Today's Extremes

State Highs State Lows

Community

WunderPhotos

Upload Photos

1,791,251 photos uploaded!

WunderBlogs® & News

Nearby

Air Quality

  Air Quality AQ Index Pollutant
Not available.

Snow Depth

Station Depth Elevation

Earthquake Activity

City Distance Mag. Time & Date
Minimum magnitude displayed is 2.5.

Coastal Water Temperatures

Place Temperature

Nearby Weather Stations